sensor_id;sensor_type;location;lat;lon;timestamp;P1;durP1;ratioP1;P2;durP2;ratioP2
58472;SDS011;44775;51.564;5.460;2023-07-13T00:02:04;8.77;;;2.85;;
58472;SDS011;44775;51.564;5.460;2023-07-13T00:04:30;8.52;;;2.90;;
58472;SDS011;44775;51.564;5.460;2023-07-13T00:06:55;7.03;;;2.60;;
58472;SDS011;44775;51.564;5.460;2023-07-13T00:09:21;7.03;;;2.70;;
58472;SDS011;44775;51.564;5.460;2023-07-13T00:11:50;7.80;;;2.88;;
58472;SDS011;44775;51.564;5.460;2023-07-13T00:14:19;9.30;;;2.70;;
58472;SDS011;44775;51.564;5.460;2023-07-13T00:16:45;8.13;;;2.85;;
58472;SDS011;44775;51.564;5.460;2023-07-13T00:19:11;7.75;;;2.63;;
58472;SDS011;44775;51.564;5.460;2023-07-13T00:21:38;9.43;;;3.08;;
58472;SDS011;44775;51.564;5.460;2023-07-13T00:24:05;7.57;;;2.97;;
58472;SDS011;44775;51.564;5.460;2023-07-13T00:26:32;6.60;;;2.80;;
58472;SDS011;44775;51.564;5.460;2023-07-13T00:28:57;7.47;;;2.42;;
58472;SDS011;44775;51.564;5.460;2023-07-13T00:31:23;6.53;;;3.00;;
58472;SDS011;44775;51.564;5.460;2023-07-13T00:33:48;10.85;;;2.78;;
58472;SDS011;44775;51.564;5.460;2023-07-13T00:36:14;12.35;;;3.38;;
58472;SDS011;44775;51.564;5.460;2023-07-13T00:38:40;7.38;;;2.95;;
58472;SDS011;44775;51.564;5.460;2023-07-13T00:41:06;7.88;;;2.92;;
58472;SDS011;44775;51.564;5.460;2023-07-13T00:43:31;10.55;;;3.03;;
58472;SDS011;44775;51.564;5.460;2023-07-13T00:48:39;9.23;;;3.30;;
58472;SDS011;44775;51.564;5.460;2023-07-13T00:51:06;7.35;;;3.25;;
58472;SDS011;44775;51.564;5.460;2023-07-13T00:53:31;10.70;;;3.58;;
58472;SDS011;44775;51.564;5.460;2023-07-13T00:55:58;7.40;;;3.28;;
58472;SDS011;44775;51.564;5.460;2023-07-13T00:58:25;8.35;;;3.47;;
58472;SDS011;44775;51.564;5.460;2023-07-13T01:00:52;12.10;;;3.43;;
58472;SDS011;44775;51.564;5.460;2023-07-13T01:03:18;7.03;;;3.10;;
58472;SDS011;44775;51.564;5.460;2023-07-13T01:05:44;9.32;;;3.55;;
58472;SDS011;44775;51.564;5.460;2023-07-13T01:08:13;9.02;;;3.15;;
58472;SDS011;44775;51.564;5.460;2023-07-13T01:10:39;7.65;;;3.22;;
58472;SDS011;44775;51.564;5.460;2023-07-13T01:13:08;10.73;;;3.80;;
58472;SDS011;44775;51.564;5.460;2023-07-13T01:15:44;8.00;;;3.40;;
58472;SDS011;44775;51.564;5.460;2023-07-13T01:18:16;8.98;;;3.50;;
58472;SDS011;44775;51.564;5.460;2023-07-13T01:20:55;7.13;;;3.83;;
58472;SDS011;44775;51.564;5.460;2023-07-13T01:23:26;10.32;;;4.38;;
58472;SDS011;44775;51.564;5.460;2023-07-13T01:25:52;10.63;;;4.07;;
58472;SDS011;44775;51.564;5.460;2023-07-13T01:28:20;8.57;;;4.00;;
58472;SDS011;44775;51.564;5.460;2023-07-13T01:30:46;8.80;;;3.88;;
58472;SDS011;44775;51.564;5.460;2023-07-13T01:33:12;8.90;;;3.65;;
58472;SDS011;44775;51.564;5.460;2023-07-13T01:35:43;7.13;;;3.50;;
58472;SDS011;44775;51.564;5.460;2023-07-13T01:40:38;12.27;;;3.80;;
58472;SDS011;44775;51.564;5.460;2023-07-13T01:43:04;7.95;;;4.13;;
58472;SDS011;44775;51.564;5.460;2023-07-13T01:45:30;12.35;;;4.82;;
58472;SDS011;44775;51.564;5.460;2023-07-13T01:47:56;11.75;;;4.63;;
58472;SDS011;44775;51.564;5.460;2023-07-13T01:50:22;13.13;;;4.80;;
58472;SDS011;44775;51.564;5.460;2023-07-13T01:52:48;11.73;;;4.47;;
58472;SDS011;44775;51.564;5.460;2023-07-13T01:55:14;8.27;;;5.10;;
58472;SDS011;44775;51.564;5.460;2023-07-13T01:57:39;10.20;;;4.72;;
58472;SDS011;44775;51.564;5.460;2023-07-13T02:00:05;10.68;;;4.60;;
58472;SDS011;44775;51.564;5.460;2023-07-13T02:02:32;14.90;;;5.85;;
58472;SDS011;44775;51.564;5.460;2023-07-13T02:04:57;10.10;;;5.47;;
58472;SDS011;44775;51.564;5.460;2023-07-13T02:07:22;16.70;;;6.32;;
58472;SDS011;44775;51.564;5.460;2023-07-13T02:09:48;16.35;;;5.50;;
58472;SDS011;44775;51.564;5.460;2023-07-13T02:12:14;11.80;;;5.88;;
58472;SDS011;44775;51.564;5.460;2023-07-13T02:14:39;14.15;;;5.40;;
58472;SDS011;44775;51.564;5.460;2023-07-13T02:17:05;10.35;;;5.20;;
58472;SDS011;44775;51.564;5.460;2023-07-13T02:19:30;13.88;;;5.55;;
58472;SDS011;44775;51.564;5.460;2023-07-13T02:21:56;12.73;;;5.22;;
58472;SDS011;44775;51.564;5.460;2023-07-13T02:24:21;11.95;;;5.20;;
58472;SDS011;44775;51.564;5.460;2023-07-13T02:26:47;15.70;;;6.00;;
58472;SDS011;44775;51.564;5.460;2023-07-13T02:29:13;11.48;;;5.55;;
58472;SDS011;44775;51.564;5.460;2023-07-13T02:31:38;13.45;;;5.50;;
58472;SDS011;44775;51.564;5.460;2023-07-13T02:34:03;14.95;;;5.20;;
58472;SDS011;44775;51.564;5.460;2023-07-13T02:36:30;10.45;;;5.13;;
58472;SDS011;44775;51.564;5.460;2023-07-13T02:38:57;13.75;;;5.32;;
58472;SDS011;44775;51.564;5.460;2023-07-13T02:41:26;10.63;;;4.78;;
58472;SDS011;44775;51.564;5.460;2023-07-13T02:43:51;12.73;;;4.63;;
58472;SDS011;44775;51.564;5.460;2023-07-13T02:46:17;14.35;;;4.55;;
58472;SDS011;44775;51.564;5.460;2023-07-13T02:48:44;9.77;;;4.57;;
58472;SDS011;44775;51.564;5.460;2023-07-13T02:51:10;11.48;;;4.70;;
58472;SDS011;44775;51.564;5.460;2023-07-13T02:53:35;11.68;;;4.60;;
58472;SDS011;44775;51.564;5.460;2023-07-13T02:56:01;12.75;;;5.32;;
58472;SDS011;44775;51.564;5.460;2023-07-13T02:58:27;14.25;;;5.93;;
58472;SDS011;44775;51.564;5.460;2023-07-13T03:00:52;13.77;;;5.72;;
58472;SDS011;44775;51.564;5.460;2023-07-13T03:03:18;15.73;;;6.00;;
58472;SDS011;44775;51.564;5.460;2023-07-13T03:05:44;13.48;;;5.25;;
58472;SDS011;44775;51.564;5.460;2023-07-13T03:08:10;10.98;;;5.57;;
58472;SDS011;44775;51.564;5.460;2023-07-13T03:10:36;14.90;;;5.20;;
58472;SDS011;44775;51.564;5.460;2023-07-13T03:13:03;12.70;;;4.68;;
58472;SDS011;44775;51.564;5.460;2023-07-13T03:15:28;13.32;;;4.65;;
58472;SDS011;44775;51.564;5.460;2023-07-13T03:17:54;10.25;;;4.85;;
58472;SDS011;44775;51.564;5.460;2023-07-13T03:20:19;14.00;;;4.70;;
58472;SDS011;44775;51.564;5.460;2023-07-13T03:22:45;12.20;;;4.65;;
58472;SDS011;44775;51.564;5.460;2023-07-13T03:25:10;13.60;;;4.65;;
58472;SDS011;44775;51.564;5.460;2023-07-13T03:27:36;14.00;;;4.93;;
58472;SDS011;44775;51.564;5.460;2023-07-13T03:30:03;14.38;;;5.57;;
58472;SDS011;44775;51.564;5.460;2023-07-13T03:32:29;13.25;;;4.78;;
58472;SDS011;44775;51.564;5.460;2023-07-13T03:34:55;16.38;;;5.40;;
58472;SDS011;44775;51.564;5.460;2023-07-13T03:37:20;11.95;;;5.25;;
58472;SDS011;44775;51.564;5.460;2023-07-13T03:39:46;14.18;;;5.45;;
58472;SDS011;44775;51.564;5.460;2023-07-13T03:42:11;12.93;;;5.10;;
58472;SDS011;44775;51.564;5.460;2023-07-13T03:44:36;12.60;;;4.80;;
58472;SDS011;44775;51.564;5.460;2023-07-13T03:47:05;13.63;;;5.32;;
58472;SDS011;44775;51.564;5.460;2023-07-13T03:49:31;14.38;;;5.43;;
58472;SDS011;44775;51.564;5.460;2023-07-13T03:51:57;13.57;;;5.20;;
58472;SDS011;44775;51.564;5.460;2023-07-13T03:54:22;16.52;;;5.40;;
58472;SDS011;44775;51.564;5.460;2023-07-13T03:56:48;15.93;;;5.68;;
58472;SDS011;44775;51.564;5.460;2023-07-13T03:59:13;15.88;;;5.22;;
58472;SDS011;44775;51.564;5.460;2023-07-13T04:01:39;15.30;;;5.13;;
58472;SDS011;44775;51.564;5.460;2023-07-13T04:04:04;13.88;;;5.15;;
58472;SDS011;44775;51.564;5.460;2023-07-13T04:06:30;14.15;;;5.22;;
58472;SDS011;44775;51.564;5.460;2023-07-13T04:08:56;11.05;;;4.82;;
58472;SDS011;44775;51.564;5.460;2023-07-13T04:11:24;13.83;;;4.57;;
58472;SDS011;44775;51.564;5.460;2023-07-13T04:13:52;14.93;;;4.82;;
58472;SDS011;44775;51.564;5.460;2023-07-13T04:16:18;15.98;;;4.82;;
58472;SDS011;44775;51.564;5.460;2023-07-13T04:18:44;12.18;;;4.68;;
58472;SDS011;44775;51.564;5.460;2023-07-13T04:21:10;16.65;;;4.85;;
58472;SDS011;44775;51.564;5.460;2023-07-13T04:23:37;18.30;;;5.35;;
58472;SDS011;44775;51.564;5.460;2023-07-13T04:26:03;14.35;;;5.00;;
58472;SDS011;44775;51.564;5.460;2023-07-13T04:28:29;15.00;;;5.22;;
58472;SDS011;44775;51.564;5.460;2023-07-13T04:30:55;18.13;;;5.13;;
58472;SDS011;44775;51.564;5.460;2023-07-13T04:33:21;19.17;;;5.68;;
58472;SDS011;44775;51.564;5.460;2023-07-13T04:35:47;14.10;;;5.07;;
58472;SDS011;44775;51.564;5.460;2023-07-13T04:38:21;12.75;;;5.70;;
58472;SDS011;44775;51.564;5.460;2023-07-13T04:40:52;19.90;;;6.43;;
58472;SDS011;44775;51.564;5.460;2023-07-13T04:43:18;16.83;;;6.35;;
58472;SDS011;44775;51.564;5.460;2023-07-13T04:45:44;19.30;;;6.85;;
58472;SDS011;44775;51.564;5.460;2023-07-13T04:48:10;22.65;;;8.18;;
58472;SDS011;44775;51.564;5.460;2023-07-13T04:50:36;19.40;;;7.60;;
58472;SDS011;44775;51.564;5.460;2023-07-13T04:53:02;24.80;;;8.40;;
58472;SDS011;44775;51.564;5.460;2023-07-13T04:55:29;20.00;;;6.90;;
58472;SDS011;44775;51.564;5.460;2023-07-13T04:57:55;24.65;;;8.18;;
58472;SDS011;44775;51.564;5.460;2023-07-13T05:00:21;24.08;;;8.70;;
58472;SDS011;44775;51.564;5.460;2023-07-13T05:02:47;23.05;;;8.52;;
58472;SDS011;44775;51.564;5.460;2023-07-13T05:05:12;24.77;;;9.45;;
58472;SDS011;44775;51.564;5.460;2023-07-13T05:07:38;23.65;;;9.68;;
58472;SDS011;44775;51.564;5.460;2023-07-13T05:10:03;25.85;;;10.13;;
58472;SDS011;44775;51.564;5.460;2023-07-13T05:12:29;27.90;;;9.80;;
58472;SDS011;44775;51.564;5.460;2023-07-13T05:14:55;23.00;;;9.85;;
58472;SDS011;44775;51.564;5.460;2023-07-13T05:17:21;28.52;;;10.60;;
58472;SDS011;44775;51.564;5.460;2023-07-13T05:19:46;30.10;;;10.80;;
58472;SDS011;44775;51.564;5.460;2023-07-13T05:22:12;31.33;;;11.70;;
58472;SDS011;44775;51.564;5.460;2023-07-13T05:24:37;26.52;;;11.45;;
58472;SDS011;44775;51.564;5.460;2023-07-13T05:27:03;27.23;;;12.00;;
58472;SDS011;44775;51.564;5.460;2023-07-13T05:29:28;34.22;;;12.38;;
58472;SDS011;44775;51.564;5.460;2023-07-13T05:31:54;26.58;;;12.43;;
58472;SDS011;44775;51.564;5.460;2023-07-13T05:34:20;30.02;;;12.73;;
58472;SDS011;44775;51.564;5.460;2023-07-13T05:36:45;28.40;;;13.45;;
58472;SDS011;44775;51.564;5.460;2023-07-13T05:39:10;27.92;;;12.77;;
58472;SDS011;44775;51.564;5.460;2023-07-13T05:41:36;36.20;;;12.90;;
58472;SDS011;44775;51.564;5.460;2023-07-13T05:44:02;33.45;;;13.93;;
58472;SDS011;44775;51.564;5.460;2023-07-13T05:46:28;26.83;;;12.25;;
58472;SDS011;44775;51.564;5.460;2023-07-13T05:48:53;32.80;;;12.32;;
58472;SDS011;44775;51.564;5.460;2023-07-13T05:51:18;28.05;;;13.07;;
58472;SDS011;44775;51.564;5.460;2023-07-13T05:53:44;29.40;;;12.85;;
58472;SDS011;44775;51.564;5.460;2023-07-13T05:56:09;33.15;;;13.27;;
58472;SDS011;44775;51.564;5.460;2023-07-13T05:58:35;27.60;;;12.05;;
58472;SDS011;44775;51.564;5.460;2023-07-13T06:03:34;31.40;;;13.05;;
58472;SDS011;44775;51.564;5.460;2023-07-13T06:06:00;31.70;;;13.00;;
58472;SDS011;44775;51.564;5.460;2023-07-13T06:08:26;26.75;;;13.50;;
58472;SDS011;44775;51.564;5.460;2023-07-13T06:10:52;31.95;;;13.20;;
58472;SDS011;44775;51.564;5.460;2023-07-13T06:13:18;31.45;;;13.23;;
58472;SDS011;44775;51.564;5.460;2023-07-13T06:15:47;30.05;;;12.60;;
58472;SDS011;44775;51.564;5.460;2023-07-13T06:18:16;27.45;;;13.07;;
58472;SDS011;44775;51.564;5.460;2023-07-13T06:20:41;26.27;;;12.45;;
58472;SDS011;44775;51.564;5.460;2023-07-13T06:23:06;26.08;;;12.00;;
58472;SDS011;44775;51.564;5.460;2023-07-13T06:25:32;31.95;;;12.32;;
58472;SDS011;44775;51.564;5.460;2023-07-13T06:27:57;30.10;;;13.18;;
58472;SDS011;44775;51.564;5.460;2023-07-13T06:30:22;26.42;;;12.68;;
58472;SDS011;44775;51.564;5.460;2023-07-13T06:32:49;26.50;;;11.55;;
58472;SDS011;44775;51.564;5.460;2023-07-13T06:35:14;33.08;;;13.13;;
58472;SDS011;44775;51.564;5.460;2023-07-13T06:37:40;29.70;;;12.35;;
58472;SDS011;44775;51.564;5.460;2023-07-13T06:40:05;27.40;;;12.38;;
58472;SDS011;44775;51.564;5.460;2023-07-13T06:42:31;31.38;;;12.98;;
58472;SDS011;44775;51.564;5.460;2023-07-13T06:44:56;27.58;;;12.50;;
58472;SDS011;44775;51.564;5.460;2023-07-13T06:47:22;27.35;;;12.48;;
58472;SDS011;44775;51.564;5.460;2023-07-13T06:49:47;30.02;;;13.35;;
58472;SDS011;44775;51.564;5.460;2023-07-13T06:52:13;25.00;;;12.10;;
58472;SDS011;44775;51.564;5.460;2023-07-13T06:54:38;29.15;;;12.65;;
58472;SDS011;44775;51.564;5.460;2023-07-13T06:57:04;23.85;;;11.55;;
58472;SDS011;44775;51.564;5.460;2023-07-13T06:59:30;30.25;;;12.70;;
58472;SDS011;44775;51.564;5.460;2023-07-13T07:01:55;26.52;;;11.93;;
58472;SDS011;44775;51.564;5.460;2023-07-13T07:04:20;33.83;;;12.93;;
58472;SDS011;44775;51.564;5.460;2023-07-13T07:06:46;28.88;;;11.68;;
58472;SDS011;44775;51.564;5.460;2023-07-13T07:09:11;24.02;;;11.50;;
58472;SDS011;44775;51.564;5.460;2023-07-13T07:11:36;28.35;;;12.00;;
58472;SDS011;44775;51.564;5.460;2023-07-13T07:14:02;29.65;;;11.98;;
58472;SDS011;44775;51.564;5.460;2023-07-13T07:16:27;31.77;;;11.68;;
58472;SDS011;44775;51.564;5.460;2023-07-13T07:18:53;23.98;;;10.45;;
58472;SDS011;44775;51.564;5.460;2023-07-13T07:21:18;20.10;;;10.43;;
58472;SDS011;44775;51.564;5.460;2023-07-13T07:23:44;23.42;;;10.93;;
58472;SDS011;44775;51.564;5.460;2023-07-13T07:26:09;26.13;;;12.13;;
58472;SDS011;44775;51.564;5.460;2023-07-13T07:28:35;23.35;;;11.68;;
58472;SDS011;44775;51.564;5.460;2023-07-13T07:31:01;21.52;;;11.18;;
58472;SDS011;44775;51.564;5.460;2023-07-13T07:33:26;25.75;;;12.02;;
58472;SDS011;44775;51.564;5.460;2023-07-13T07:35:52;22.15;;;10.73;;
58472;SDS011;44775;51.564;5.460;2023-07-13T07:38:17;24.95;;;10.60;;
58472;SDS011;44775;51.564;5.460;2023-07-13T07:40:43;20.00;;;10.02;;
58472;SDS011;44775;51.564;5.460;2023-07-13T07:43:09;20.67;;;9.98;;
58472;SDS011;44775;51.564;5.460;2023-07-13T07:45:36;22.83;;;10.03;;
58472;SDS011;44775;51.564;5.460;2023-07-13T07:48:03;17.70;;;8.75;;
58472;SDS011;44775;51.564;5.460;2023-07-13T07:50:29;19.52;;;9.85;;
58472;SDS011;44775;51.564;5.460;2023-07-13T07:52:55;21.27;;;9.70;;
58472;SDS011;44775;51.564;5.460;2023-07-13T07:55:24;24.35;;;8.93;;
58472;SDS011;44775;51.564;5.460;2023-07-13T07:57:52;21.15;;;8.75;;
58472;SDS011;44775;51.564;5.460;2023-07-13T08:00:18;21.23;;;8.60;;
58472;SDS011;44775;51.564;5.460;2023-07-13T08:02:44;16.33;;;7.93;;
58472;SDS011;44775;51.564;5.460;2023-07-13T08:05:10;15.38;;;7.57;;
58472;SDS011;44775;51.564;5.460;2023-07-13T08:07:37;17.02;;;7.65;;
58472;SDS011;44775;51.564;5.460;2023-07-13T08:10:04;13.23;;;6.95;;
58472;SDS011;44775;51.564;5.460;2023-07-13T08:12:33;14.48;;;7.05;;
58472;SDS011;44775;51.564;5.460;2023-07-13T08:15:00;15.15;;;6.55;;
58472;SDS011;44775;51.564;5.460;2023-07-13T08:17:26;14.43;;;6.40;;
58472;SDS011;44775;51.564;5.460;2023-07-13T08:19:52;16.40;;;6.78;;
58472;SDS011;44775;51.564;5.460;2023-07-13T08:22:17;12.40;;;6.50;;
58472;SDS011;44775;51.564;5.460;2023-07-13T08:24:43;17.73;;;6.30;;
58472;SDS011;44775;51.564;5.460;2023-07-13T08:27:08;14.05;;;6.22;;
58472;SDS011;44775;51.564;5.460;2023-07-13T08:29:36;16.13;;;5.90;;
58472;SDS011;44775;51.564;5.460;2023-07-13T08:32:02;12.40;;;5.90;;
58472;SDS011;44775;51.564;5.460;2023-07-13T08:34:27;12.32;;;5.65;;
58472;SDS011;44775;51.564;5.460;2023-07-13T08:36:53;12.40;;;6.05;;
58472;SDS011;44775;51.564;5.460;2023-07-13T08:39:18;13.48;;;6.10;;
58472;SDS011;44775;51.564;5.460;2023-07-13T08:41:47;10.95;;;6.13;;
58472;SDS011;44775;51.564;5.460;2023-07-13T08:44:20;10.32;;;5.72;;
58472;SDS011;44775;51.564;5.460;2023-07-13T08:46:53;10.13;;;6.40;;
58472;SDS011;44775;51.564;5.460;2023-07-13T08:49:23;13.13;;;6.45;;
58472;SDS011;44775;51.564;5.460;2023-07-13T08:51:53;12.15;;;6.00;;
58472;SDS011;44775;51.564;5.460;2023-07-13T08:54:27;11.63;;;6.47;;
58472;SDS011;44775;51.564;5.460;2023-07-13T08:56:57;11.60;;;6.63;;
58472;SDS011;44775;51.564;5.460;2023-07-13T08:59:26;14.45;;;6.70;;
58472;SDS011;44775;51.564;5.460;2023-07-13T09:04:19;12.10;;;6.05;;
58472;SDS011;44775;51.564;5.460;2023-07-13T09:14:45;10.88;;;6.63;;
58472;SDS011;44775;51.564;5.460;2023-07-13T09:17:18;9.68;;;6.72;;
58472;SDS011;44775;51.564;5.460;2023-07-13T09:20:00;12.73;;;7.10;;
58472;SDS011;44775;51.564;5.460;2023-07-13T09:22:46;10.43;;;7.35;;
58472;SDS011;44775;51.564;5.460;2023-07-13T09:25:20;11.10;;;7.13;;
58472;SDS011;44775;51.564;5.460;2023-07-13T09:27:46;14.65;;;6.93;;
58472;SDS011;44775;51.564;5.460;2023-07-13T09:32:39;11.95;;;6.20;;
58472;SDS011;44775;51.564;5.460;2023-07-13T09:35:11;11.60;;;6.50;;
58472;SDS011;44775;51.564;5.460;2023-07-13T09:37:40;9.60;;;5.80;;
58472;SDS011;44775;51.564;5.460;2023-07-13T09:40:17;10.27;;;5.75;;
58472;SDS011;44775;51.564;5.460;2023-07-13T09:42:51;11.88;;;5.75;;
58472;SDS011;44775;51.564;5.460;2023-07-13T09:45:26;8.90;;;5.25;;
58472;SDS011;44775;51.564;5.460;2023-07-13T09:47:58;9.57;;;5.35;;
58472;SDS011;44775;51.564;5.460;2023-07-13T09:50:44;9.52;;;5.18;;
58472;SDS011;44775;51.564;5.460;2023-07-13T09:53:11;9.27;;;4.97;;
58472;SDS011;44775;51.564;5.460;2023-07-13T09:55:44;8.68;;;5.03;;
58472;SDS011;44775;51.564;5.460;2023-07-13T10:00:39;8.93;;;5.25;;
58472;SDS011;44775;51.564;5.460;2023-07-13T10:03:18;12.38;;;5.03;;
58472;SDS011;44775;51.564;5.460;2023-07-13T10:05:47;9.25;;;4.50;;
58472;SDS011;44775;51.564;5.460;2023-07-13T10:11:00;6.78;;;4.18;;
58472;SDS011;44775;51.564;5.460;2023-07-13T10:13:32;5.50;;;3.97;;
58472;SDS011;44775;51.564;5.460;2023-07-13T10:16:02;7.90;;;4.10;;
58472;SDS011;44775;51.564;5.460;2023-07-13T10:18:38;7.93;;;4.35;;
58472;SDS011;44775;51.564;5.460;2023-07-13T10:21:23;7.57;;;4.03;;
58472;SDS011;44775;51.564;5.460;2023-07-13T10:23:54;8.50;;;4.22;;
58472;SDS011;44775;51.564;5.460;2023-07-13T10:26:27;11.02;;;4.20;;
58472;SDS011;44775;51.564;5.460;2023-07-13T10:28:57;8.15;;;3.85;;
58472;SDS011;44775;51.564;5.460;2023-07-13T10:31:27;6.97;;;3.67;;
58472;SDS011;44775;51.564;5.460;2023-07-13T10:33:52;6.72;;;3.65;;
58472;SDS011;44775;51.564;5.460;2023-07-13T10:38:52;7.57;;;3.40;;
58472;SDS011;44775;51.564;5.460;2023-07-13T10:41:21;6.93;;;3.20;;
58472;SDS011;44775;51.564;5.460;2023-07-13T10:43:50;7.45;;;4.28;;
58472;SDS011;44775;51.564;5.460;2023-07-13T10:46:19;10.63;;;4.85;;
58472;SDS011;44775;51.564;5.460;2023-07-13T10:48:52;8.93;;;5.20;;
58472;SDS011;44775;51.564;5.460;2023-07-13T10:51:20;12.50;;;6.68;;
58472;SDS011;44775;51.564;5.460;2023-07-13T10:53:46;9.73;;;5.68;;
58472;SDS011;44775;51.564;5.460;2023-07-13T10:58:41;11.23;;;7.35;;
58472;SDS011;44775;51.564;5.460;2023-07-13T11:01:09;10.98;;;6.47;;
58472;SDS011;44775;51.564;5.460;2023-07-13T11:03:47;12.05;;;8.65;;
58472;SDS011;44775;51.564;5.460;2023-07-13T11:06:29;9.85;;;7.47;;
58472;SDS011;44775;51.564;5.460;2023-07-13T11:12:07;10.95;;;7.15;;
58472;SDS011;44775;51.564;5.460;2023-07-13T11:22:43;10.45;;;6.47;;
58472;SDS011;44775;51.564;5.460;2023-07-13T11:25:30;9.95;;;6.20;;
58472;SDS011;44775;51.564;5.460;2023-07-13T11:28:14;11.70;;;6.68;;
58472;SDS011;44775;51.564;5.460;2023-07-13T11:30:49;9.73;;;5.90;;
58472;SDS011;44775;51.564;5.460;2023-07-13T11:36:03;9.80;;;5.88;;
58472;SDS011;44775;51.564;5.460;2023-07-13T11:38:37;10.82;;;5.93;;
58472;SDS011;44775;51.564;5.460;2023-07-13T11:41:06;9.35;;;5.65;;
58472;SDS011;44775;51.564;5.460;2023-07-13T11:43:42;8.73;;;5.57;;
58472;SDS011;44775;51.564;5.460;2023-07-13T11:46:16;10.23;;;6.10;;
58472;SDS011;44775;51.564;5.460;2023-07-13T11:48:47;10.73;;;6.60;;
58472;SDS011;44775;51.564;5.460;2023-07-13T11:51:17;19.85;;;7.97;;
58472;SDS011;44775;51.564;5.460;2023-07-13T11:53:49;7.03;;;4.95;;
58472;SDS011;44775;51.564;5.460;2023-07-13T11:56:16;8.02;;;4.32;;
58472;SDS011;44775;51.564;5.460;2023-07-13T11:58:42;13.68;;;6.15;;
58472;SDS011;44775;51.564;5.460;2023-07-13T12:01:45;10.48;;;5.38;;
58472;SDS011;44775;51.564;5.460;2023-07-13T12:04:08;8.52;;;5.55;;
58472;SDS011;44775;51.564;5.460;2023-07-13T12:06:46;11.50;;;5.32;;
58472;SDS011;44775;51.564;5.460;2023-07-13T12:09:13;8.13;;;5.20;;
58472;SDS011;44775;51.564;5.460;2023-07-13T12:11:43;10.45;;;5.60;;
58472;SDS011;44775;51.564;5.460;2023-07-13T12:14:15;10.27;;;5.47;;
58472;SDS011;44775;51.564;5.460;2023-07-13T12:16:42;11.70;;;5.38;;
58472;SDS011;44775;51.564;5.460;2023-07-13T12:19:14;9.60;;;5.20;;
58472;SDS011;44775;51.564;5.460;2023-07-13T12:21:41;12.00;;;5.05;;
58472;SDS011;44775;51.564;5.460;2023-07-13T12:24:16;8.02;;;4.72;;
58472;SDS011;44775;51.564;5.460;2023-07-13T12:26:43;8.05;;;4.20;;
58472;SDS011;44775;51.564;5.460;2023-07-13T12:29:15;10.73;;;5.38;;
58472;SDS011;44775;51.564;5.460;2023-07-13T12:31:42;6.97;;;3.20;;
58472;SDS011;44775;51.564;5.460;2023-07-13T12:36:41;5.38;;;3.00;;
58472;SDS011;44775;51.564;5.460;2023-07-13T12:39:17;6.20;;;2.88;;
58472;SDS011;44775;51.564;5.460;2023-07-13T12:41:45;4.80;;;2.42;;
58472;SDS011;44775;51.564;5.460;2023-07-13T12:44:13;8.27;;;2.83;;
58472;SDS011;44775;51.564;5.460;2023-07-13T12:46:50;5.95;;;2.63;;
58472;SDS011;44775;51.564;5.460;2023-07-13T12:49:18;6.07;;;2.42;;
58472;SDS011;44775;51.564;5.460;2023-07-13T12:51:55;5.38;;;2.55;;
58472;SDS011;44775;51.564;5.460;2023-07-13T12:54:22;5.63;;;2.70;;
58472;SDS011;44775;51.564;5.460;2023-07-13T12:56:51;5.03;;;2.63;;
58472;SDS011;44775;51.564;5.460;2023-07-13T12:59:20;7.43;;;2.90;;
58472;SDS011;44775;51.564;5.460;2023-07-13T13:01:46;4.95;;;2.80;;
58472;SDS011;44775;51.564;5.460;2023-07-13T13:04:14;5.82;;;2.67;;
58472;SDS011;44775;51.564;5.460;2023-07-13T13:06:40;5.07;;;2.40;;
58472;SDS011;44775;51.564;5.460;2023-07-13T13:09:12;4.95;;;2.70;;
58472;SDS011;44775;51.564;5.460;2023-07-13T13:11:39;6.65;;;2.50;;
58472;SDS011;44775;51.564;5.460;2023-07-13T13:14:05;7.72;;;2.42;;
58472;SDS011;44775;51.564;5.460;2023-07-13T13:16:33;7.97;;;3.00;;
58472;SDS011;44775;51.564;5.460;2023-07-13T13:19:19;5.53;;;2.70;;
58472;SDS011;44775;51.564;5.460;2023-07-13T13:21:48;6.32;;;2.95;;
58472;SDS011;44775;51.564;5.460;2023-07-13T13:24:17;5.38;;;2.97;;
58472;SDS011;44775;51.564;5.460;2023-07-13T13:26:45;6.82;;;2.90;;
58472;SDS011;44775;51.564;5.460;2023-07-13T13:29:21;5.60;;;3.00;;
58472;SDS011;44775;51.564;5.460;2023-07-13T13:31:52;5.63;;;2.75;;
58472;SDS011;44775;51.564;5.460;2023-07-13T13:34:21;7.07;;;3.22;;
58472;SDS011;44775;51.564;5.460;2023-07-13T13:36:48;6.57;;;3.20;;
58472;SDS011;44775;51.564;5.460;2023-07-13T13:39:21;6.40;;;3.28;;
58472;SDS011;44775;51.564;5.460;2023-07-13T13:41:54;4.68;;;3.13;;
58472;SDS011;44775;51.564;5.460;2023-07-13T13:44:20;11.85;;;3.50;;
58472;SDS011;44775;51.564;5.460;2023-07-13T13:46:50;6.00;;;3.30;;
58472;SDS011;44775;51.564;5.460;2023-07-13T13:49:17;7.03;;;3.30;;
58472;SDS011;44775;51.564;5.460;2023-07-13T13:51:45;7.18;;;3.58;;
58472;SDS011;44775;51.564;5.460;2023-07-13T13:54:12;7.70;;;3.40;;
58472;SDS011;44775;51.564;5.460;2023-07-13T13:56:41;5.57;;;3.38;;
58472;SDS011;44775;51.564;5.460;2023-07-13T13:59:07;6.60;;;3.30;;
58472;SDS011;44775;51.564;5.460;2023-07-13T14:01:33;5.00;;;3.13;;
58472;SDS011;44775;51.564;5.460;2023-07-13T14:04:00;5.47;;;3.17;;
58472;SDS011;44775;51.564;5.460;2023-07-13T14:06:25;8.02;;;3.00;;
58472;SDS011;44775;51.564;5.460;2023-07-13T14:08:50;8.00;;;3.08;;
58472;SDS011;44775;51.564;5.460;2023-07-13T14:11:17;4.35;;;2.63;;
58472;SDS011;44775;51.564;5.460;2023-07-13T14:13:47;4.05;;;2.50;;
58472;SDS011;44775;51.564;5.460;2023-07-13T14:16:17;5.25;;;2.60;;
58472;SDS011;44775;51.564;5.460;2023-07-13T14:18:45;4.68;;;2.63;;
58472;SDS011;44775;51.564;5.460;2023-07-13T14:21:12;5.80;;;2.40;;
58472;SDS011;44775;51.564;5.460;2023-07-13T14:23:42;6.20;;;2.78;;
58472;SDS011;44775;51.564;5.460;2023-07-13T14:26:13;6.00;;;3.15;;
58472;SDS011;44775;51.564;5.460;2023-07-13T14:28:41;5.80;;;2.97;;
58472;SDS011;44775;51.564;5.460;2023-07-13T14:31:08;6.28;;;3.17;;
58472;SDS011;44775;51.564;5.460;2023-07-13T14:33:36;4.82;;;2.92;;
58472;SDS011;44775;51.564;5.460;2023-07-13T14:36:02;5.28;;;2.80;;
58472;SDS011;44775;51.564;5.460;2023-07-13T14:38:34;5.63;;;2.58;;
58472;SDS011;44775;51.564;5.460;2023-07-13T14:40:59;4.28;;;2.55;;
58472;SDS011;44775;51.564;5.460;2023-07-13T14:43:25;7.78;;;2.92;;
58472;SDS011;44775;51.564;5.460;2023-07-13T14:45:53;5.82;;;2.90;;
58472;SDS011;44775;51.564;5.460;2023-07-13T14:48:21;3.30;;;2.33;;
58472;SDS011;44775;51.564;5.460;2023-07-13T14:50:57;7.47;;;3.20;;
58472;SDS011;44775;51.564;5.460;2023-07-13T14:53:25;7.53;;;3.33;;
58472;SDS011;44775;51.564;5.460;2023-07-13T14:55:52;6.30;;;3.00;;
58472;SDS011;44775;51.564;5.460;2023-07-13T14:58:18;6.18;;;3.00;;
58472;SDS011;44775;51.564;5.460;2023-07-13T15:00:43;7.53;;;3.28;;
58472;SDS011;44775;51.564;5.460;2023-07-13T15:03:19;8.40;;;3.22;;
58472;SDS011;44775;51.564;5.460;2023-07-13T15:05:46;4.95;;;3.08;;
58472;SDS011;44775;51.564;5.460;2023-07-13T15:08:12;4.75;;;3.35;;
58472;SDS011;44775;51.564;5.460;2023-07-13T15:10:37;7.85;;;3.30;;
58472;SDS011;44775;51.564;5.460;2023-07-13T15:13:13;6.00;;;3.20;;
58472;SDS011;44775;51.564;5.460;2023-07-13T15:15:39;6.05;;;3.42;;
58472;SDS011;44775;51.564;5.460;2023-07-13T15:18:11;7.55;;;3.85;;
58472;SDS011;44775;51.564;5.460;2023-07-13T15:20:39;7.70;;;3.40;;
58472;SDS011;44775;51.564;5.460;2023-07-13T15:23:04;6.10;;;3.53;;
58472;SDS011;44775;51.564;5.460;2023-07-13T15:25:31;5.65;;;3.38;;
58472;SDS011;44775;51.564;5.460;2023-07-13T15:27:58;7.05;;;3.40;;
58472;SDS011;44775;51.564;5.460;2023-07-13T15:30:36;5.60;;;3.25;;